YPPH/PER METAR and TAF weather

Enter ICAO airport designator
Station Type Date Time Source
YPPH METAR 2021/07/24 19:00 UTC NOAA

YPPH 241900Z 01008KT 9999 BKN003 BKN050 12/12 Q1019


Station Type Date Time Source
YPPH Decoded METAR 2021/07/24 19:00 UTC NOAA

Belmont Perth Airport , Australia (YPPH) 31-56S 115-57E 29M
Jul 24, 2021 - 03:00 PM EDT / 2021.07.24 1900 UTC
Wind: from the N (010 degrees) at 9 MPH (8 KT):0
Visibility: greater than 7 mile(s):0
Sky conditions: mostly cloudy
Temperature: 53 F (12 C)
Dew Point: 53 F (12 C)
Relative Humidity: 100%
Pressure (altimeter): 30.09 in. Hg (1019 hPa)
ob: YPPH 241900Z 01008KT 9999 BKN003 BKN050 12/12 Q1019
cycle: 19

Station Type Date Time Source
YPPH TAF 2021/07/24 18:31 UTC NOAA

TAF YPPH 241715Z 2418/2600 03005KT 9999 -SHRA BKN004 SCT035
FM250100 36008KT 9999 -SHRA SCT035
FM250300 28010KT 9999 -SHRA SCT035
FM251400 02006KT 9999 -SHRA SCT035 PROB30 2418/2501 0400 FG BKN001

Example: see airport list